Time;durP1;ratioP1;P1;durP2;ratioP2;P2;SDS_P1;SDS_P2;PMS_P1;PMS_P2;Temp;Humidity;BMP_temperature;BMP_pressure;BME280_temperature;BME280_humidity;BME280_pressure;Samples;Min_cycle;Max_cycle;Signal;HPM_P1;HPM_P2
2022/10/26 00:07:43;;;;;;;11.07;4.22;;;;;;;12.02;100.00;100314.19;20506016;29;20043;-72
2022/10/26 00:17:44;;;;;;;14.35;4.50;;;;;;;12.11;100.00;100291.25;20505872;29;20047;-72
2022/10/26 00:27:45;;;;;;;12.25;5.03;;;;;;;12.14;100.00;100293.81;20490757;29;20107;-72
2022/10/26 00:37:47;;;;;;;16.83;5.90;;;;;;;12.21;100.00;100296.25;20432657;28;20042;-72
2022/10/26 00:47:49;;;;;;;11.40;5.50;;;;;;;12.19;100.00;100299.81;20582497;28;20082;-72
2022/10/26 00:57:50;;;;;;;7.95;4.28;;;;;;;12.22;100.00;100302.38;20583337;28;20559;-73
2022/10/26 01:07:52;;;;;;;11.73;4.07;;;;;;;12.23;100.00;100297.09;20582162;28;20078;-72
2022/10/26 01:17:54;;;;;;;13.63;5.95;;;;;;;12.18;100.00;100271.84;20581629;28;20055;-72
2022/10/26 01:27:55;;;;;;;13.85;4.70;;;;;;;12.16;100.00;100265.75;20580937;28;20054;-73
2022/10/26 01:37:56;;;;;;;12.18;4.97;;;;;;;12.20;100.00;100264.78;20579208;28;20055;-72
2022/10/26 01:47:58;;;;;;;13.57;4.53;;;;;;;12.25;100.00;100276.03;20579273;28;20574;-72
2022/10/26 01:57:59;;;;;;;15.07;4.65;;;;;;;12.25;100.00;100283.91;20578782;28;20059;-72
2022/10/26 02:08:00;;;;;;;11.68;4.78;;;;;;;12.21;100.00;100292.75;20577310;28;20050;-72
2022/10/26 02:18:02;;;;;;;10.68;4.63;;;;;;;12.15;100.00;100301.66;20576289;28;20523;-72
2022/10/26 02:28:03;;;;;;;10.45;4.40;;;;;;;12.21;100.00;100304.13;20576576;28;20050;-74
2022/10/26 02:38:04;;;;;;;8.52;4.03;;;;;;;12.27;100.00;100308.38;20575420;28;20125;-73
2022/10/26 02:48:06;;;;;;;13.48;4.93;;;;;;;12.26;100.00;100318.03;20576184;28;20459;-72
2022/10/26 02:58:07;;;;;;;9.10;4.18;;;;;;;12.31;100.00;100310.91;20575151;28;20055;-73
2022/10/26 03:08:09;;;;;;;12.13;4.28;;;;;;;12.24;100.00;100300.56;20584785;28;20061;-72
2022/10/26 03:18:10;;;;;;;14.05;4.25;;;;;;;12.25;100.00;100315.41;20590902;28;20058;-72
2022/10/26 03:28:11;;;;;;;8.52;4.63;;;;;;;12.26;100.00;100319.75;20589202;28;20058;-72
2022/10/26 03:38:13;;;;;;;12.98;4.57;;;;;;;12.28;100.00;100315.34;20588351;28;20054;-73
2022/10/26 03:48:16;;;;;;;13.35;4.80;;;;;;;12.24;100.00;100313.69;20588284;28;20057;-73
2022/10/26 03:58:17;;;;;;;9.30;3.97;;;;;;;12.09;100.00;100293.06;20587655;28;20559;-72
2022/10/26 04:08:19;;;;;;;8.63;3.97;;;;;;;11.98;100.00;100298.56;20586333;28;20058;-71
2022/10/26 04:18:20;;;;;;;9.35;5.13;;;;;;;11.85;100.00;100305.84;20585492;28;20106;-72
2022/10/26 04:28:21;;;;;;;11.88;4.65;;;;;;;11.75;100.00;100284.19;20584824;28;20459;-72
2022/10/26 04:38:23;;;;;;;12.52;5.43;;;;;;;11.77;100.00;100277.13;20583911;28;20467;-72
2022/10/26 04:48:24;;;;;;;14.60;6.13;;;;;;;11.81;100.00;100306.78;20583814;28;20081;-72
2022/10/26 04:58:25;;;;;;;12.82;5.32;;;;;;;11.82;100.00;100311.16;20583290;28;20051;-72
2022/10/26 05:08:28;;;;;;;13.15;4.95;;;;;;;11.82;100.00;100321.66;20582572;28;20058;-72
2022/10/26 05:18:29;;;;;;;8.55;4.78;;;;;;;11.88;100.00;100321.53;20581608;28;20055;-72
2022/10/26 05:28:31;;;;;;;10.73;4.75;;;;;;;11.95;100.00;100315.25;20580582;28;20050;-72
2022/10/26 05:38:32;;;;;;;9.52;5.13;;;;;;;12.04;100.00;100330.78;20580212;28;20047;-71
2022/10/26 05:48:34;;;;;;;13.25;5.35;;;;;;;12.09;100.00;100342.94;20527624;28;20051;-72
2022/10/26 05:58:35;;;;;;;11.85;4.85;;;;;;;12.15;100.00;100369.03;20494950;29;20047;-69
2022/10/26 06:08:36;;;;;;;14.55;5.53;;;;;;;12.27;100.00;100374.88;20493795;29;20456;-69
2022/10/26 06:18:38;;;;;;;10.77;4.40;;;;;;;12.14;100.00;100396.19;20494249;29;20084;-68
2022/10/26 06:28:39;;;;;;;9.48;4.80;;;;;;;12.22;100.00;100395.13;20439471;28;1050606;-69
2022/10/26 06:38:43;;;;;;;11.20;5.78;;;;;;;12.31;100.00;100399.28;20426671;28;20051;-70
2022/10/26 06:48:44;;;;;;;9.95;5.05;;;;;;;12.36;100.00;100402.69;20493946;29;20064;-70
2022/10/26 06:58:46;;;;;;;11.93;4.75;;;;;;;12.49;100.00;100426.88;20491560;29;20059;-70
2022/10/26 07:08:47;;;;;;;12.05;5.55;;;;;;;12.67;100.00;100422.97;20490937;29;20043;-71
2022/10/26 07:18:48;;;;;;;11.02;5.38;;;;;;;12.85;100.00;100433.03;20490520;29;20456;-69
2022/10/26 07:28:50;;;;;;;16.80;5.85;;;;;;;13.01;100.00;100444.03;20490416;29;20455;-70
2022/10/26 07:38:52;;;;;;;10.73;5.22;;;;;;;13.13;100.00;100462.13;20502032;28;20053;-70
2022/10/26 07:48:53;;;;;;;11.80;5.22;;;;;;;13.37;100.00;100479.09;20573900;28;20043;-70
2022/10/26 07:58:54;;;;;;;12.00;5.13;;;;;;;13.52;100.00;100483.94;20586131;28;20488;-70
2022/10/26 08:08:56;;;;;;;11.30;5.40;;;;;;;13.76;100.00;100508.72;20585399;28;20142;-70
2022/10/26 08:18:57;;;;;;;12.68;5.05;;;;;;;14.00;100.00;100507.19;20582923;28;20113;-72
2022/10/26 08:28:58;;;;;;;11.95;4.40;;;;;;;14.02;100.00;100521.16;20537910;23;20051;-70
2022/10/26 08:39:00;;;;;;;8.55;4.25;;;;;;;14.02;100.00;100515.88;20517549;28;20080;-68
2022/10/26 08:49:01;;;;;;;8.65;3.67;;;;;;;14.25;100.00;100532.81;20583057;28;20055;-66
2022/10/26 08:59:02;;;;;;;8.10;3.33;;;;;;;14.77;100.00;100531.31;20582168;28;20419;-68
2022/10/26 09:09:04;;;;;;;7.28;2.95;;;;;;;15.23;100.00;100529.81;20580320;28;20538;-67
2022/10/26 09:19:05;;;;;;;10.27;3.20;;;;;;;15.31;100.00;100538.34;20580822;28;20472;-68
2022/10/26 09:29:07;;;;;;;9.88;3.65;;;;;;;15.57;100.00;100554.19;20569309;28;20055;-68
2022/10/26 09:39:08;;;;;;;7.55;3.03;;;;;;;16.25;100.00;100567.72;20571557;28;20396;-68
2022/10/26 09:49:09;;;;;;;10.10;3.38;;;;;;;16.53;100.00;100571.06;20578033;28;20109;-67
2022/10/26 09:59:10;;;;;;;10.05;2.72;;;;;;;16.86;100.00;100589.19;20578696;28;20055;-68
2022/10/26 10:09:12;;;;;;;7.20;2.50;;;;;;;16.90;100.00;100604.91;20577385;28;20102;-70
2022/10/26 10:19:13;;;;;;;8.20;2.67;;;;;;;17.35;100.00;100605.81;20576626;28;20059;-68
2022/10/26 10:29:14;;;;;;;7.85;2.50;;;;;;;18.00;100.00;100618.09;20574750;28;20054;-67
2022/10/26 10:39:16;;;;;;;10.70;2.70;;;;;;;18.29;100.00;100630.09;20510682;28;20121;-70
2022/10/26 10:49:17;;;;;;;7.85;2.63;;;;;;;18.42;100.00;100625.13;20576883;28;20047;-68
2022/10/26 10:59:19;;;;;;;10.75;2.90;;;;;;;18.51;100.00;100632.66;20574627;28;20061;-70
2022/10/26 11:09:20;;;;;;;11.45;3.45;;;;;;;18.71;100.00;100640.59;20571665;28;20097;-67
2022/10/26 11:19:21;;;;;;;10.98;2.53;;;;;;;18.79;100.00;100631.44;20493633;28;20512;-67
2022/10/26 11:29:23;;;;;;;9.85;2.75;;;;;;;18.95;100.00;100641.25;20504284;28;20062;-67
2022/10/26 11:39:24;;;;;;;11.82;2.63;;;;;;;18.98;100.00;100642.94;20525099;28;20070;-68
2022/10/26 11:49:26;;;;;;;8.15;2.42;;;;;;;19.21;100.00;100647.13;20588050;28;20086;-68
2022/10/26 11:59:27;;;;;;;9.30;2.45;;;;;;;19.39;100.00;100640.94;20587553;28;20101;-68
2022/10/26 12:09:33;;;;;;;10.32;2.47;;;;;;;19.33;100.00;100645.69;20585491;28;20058;-67
2022/10/26 12:19:36;;;;;;;7.28;2.30;;;;;;;19.32;100.00;100646.66;20585090;28;20051;-68
2022/10/26 12:29:37;;;;;;;10.07;2.40;;;;;;;19.41;100.00;100651.50;20584607;28;20081;-68
2022/10/26 12:39:39;;;;;;;7.47;2.40;;;;;;;19.63;100.00;100667.28;20562473;28;20110;-68
2022/10/26 12:49:40;;;;;;;9.00;2.75;;;;;;;19.70;100.00;100674.88;20501467;29;20051;-68
2022/10/26 12:59:42;;;;;;;11.13;2.42;;;;;;;19.65;100.00;100674.25;20502762;28;20110;-69
2022/10/26 13:09:43;;;;;;;6.63;2.20;;;;;;;19.57;100.00;100679.03;20507421;28;20055;-69
2022/10/26 13:19:44;;;;;;;8.15;2.30;;;;;;;19.55;100.00;100675.59;20503734;28;20090;-66
2022/10/26 13:29:46;;;;;;;6.13;2.08;;;;;;;19.61;100.00;100678.00;20501838;28;20505;-68
2022/10/26 13:39:47;;;;;;;11.68;2.92;;;;;;;19.59;100.00;100684.25;20517314;28;20062;-67
2022/10/26 13:49:48;;;;;;;9.90;2.63;;;;;;;19.79;100.00;100686.00;20579786;28;20113;-67
2022/10/26 13:59:50;;;;;;;9.90;2.53;;;;;;;19.71;100.00;100692.53;20566251;28;20098;-67
2022/10/26 14:09:51;;;;;;;6.10;1.90;;;;;;;19.89;100.00;100708.53;20496089;28;20059;-67
2022/10/26 14:19:52;;;;;;;8.00;1.92;;;;;;;19.89;100.00;100716.50;20526452;23;20485;-85
2022/10/26 14:29:54;;;;;;;10.20;2.38;;;;;;;19.88;100.00;100712.09;20493574;29;20102;-86
2022/10/26 14:40:15;;;;;;;7.03;1.88;;;;;;;19.76;100.00;100715.38;20494452;29;20070;-85
2022/10/26 14:50:17;;;;;;;10.18;2.58;;;;;;;19.56;100.00;100727.78;20512572;29;20134;-84
2022/10/26 15:00:18;;;;;;;8.25;2.10;;;;;;;19.44;100.00;100728.34;20508551;28;20428;-84
2022/10/26 15:10:20;;;;;;;8.13;3.78;;;;;;;19.31;100.00;100738.72;20539156;29;20051;-84
2022/10/26 15:20:21;;;;;;;7.60;2.70;;;;;;;19.29;100.00;100758.28;20534283;28;20051;-84
2022/10/26 15:30:22;;;;;;;11.32;2.28;;;;;;;19.04;100.00;100751.44;20539143;29;20074;-84
2022/10/26 15:40:24;;;;;;;10.20;3.25;;;;;;;18.82;100.00;100761.28;20525218;29;20051;-85
2022/10/26 15:50:30;;;;;;;5.50;2.10;;;;;;;18.44;100.00;100772.63;20512929;29;20050;-85
2022/10/26 16:00:32;;;;;;;6.97;2.67;;;;;;;18.12;100.00;100787.19;20530231;28;20055;-85
2022/10/26 16:10:33;;;;;;;5.55;2.33;;;;;;;17.60;100.00;100794.53;20603546;28;20031;-86
2022/10/26 16:20:34;;;;;;;8.82;2.88;;;;;;;17.16;100.00;100810.28;20561501;28;20118;-84
2022/10/26 16:30:36;;;;;;;9.05;3.58;;;;;;;16.81;100.00;100824.75;20525496;29;20055;-85
2022/10/26 16:40:41;;;;;;;8.13;3.10;;;;;;;16.53;100.00;100832.75;20509137;28;20047;-85
2022/10/26 16:50:42;;;;;;;9.98;3.90;;;;;;;16.25;100.00;100859.22;20505510;29;20051;-85
2022/10/26 17:00:44;;;;;;;9.02;3.75;;;;;;;16.15;100.00;100863.91;20498803;28;20489;-86
2022/10/26 17:10:45;;;;;;;12.63;5.65;;;;;;;16.00;100.00;100872.31;20503459;29;20044;-84
2022/10/26 17:20:46;;;;;;;10.95;4.15;;;;;;;15.78;100.00;100881.78;20500743;28;20048;-84
2022/10/26 17:30:47;;;;;;;11.68;4.95;;;;;;;15.58;100.00;100892.91;20499409;28;20840;-85
2022/10/26 17:40:49;;;;;;;11.35;4.25;;;;;;;15.39;100.00;100911.00;20514769;28;20051;-83
2022/10/26 17:50:50;;;;;;;7.93;4.20;;;;;;;15.21;100.00;100928.19;20501753;29;20050;-84
2022/10/26 18:00:51;;;;;;;14.60;5.20;;;;;;;15.07;100.00;100933.81;20515101;28;20054;-84
2022/10/26 18:10:54;;;;;;;12.35;4.05;;;;;;;14.86;100.00;100958.97;20514293;28;20047;-84
2022/10/26 18:30:53;;;;;;;17.50;10.30;;;;;;;14.69;100.00;100978.72;20885874;28;20381;-76
2022/10/26 18:40:54;;;;;;;16.02;9.65;;;;;;;14.52;100.00;100985.25;20799777;28;20045;-75
2022/10/26 18:50:56;;;;;;;17.65;8.15;;;;;;;14.37;100.00;100980.28;20798357;28;20049;-76
2022/10/26 19:00:57;;;;;;;15.32;7.75;;;;;;;14.19;100.00;101001.78;20843393;28;20067;-76
2022/10/26 19:10:58;;;;;;;12.07;6.68;;;;;;;14.06;100.00;100999.38;20865475;28;20100;-75
2022/10/26 19:21:00;;;;;;;15.38;5.80;;;;;;;13.93;100.00;101011.03;20793574;28;20045;-75
2022/10/26 19:31:01;;;;;;;13.63;5.60;;;;;;;13.79;100.00;101013.94;20794810;28;20513;-75
2022/10/26 19:41:02;;;;;;;15.93;5.00;;;;;;;13.76;100.00;101010.53;20761754;28;20447;-75
2022/10/26 19:51:04;;;;;;;12.00;4.57;;;;;;;13.51;100.00;101017.97;20738720;28;20080;-75
2022/10/26 20:01:05;;;;;;;16.85;6.72;;;;;;;13.34;100.00;101027.06;20737634;28;20516;-75
2022/10/26 20:11:07;;;;;;;14.30;6.22;;;;;;;13.20;100.00;101038.66;20737990;28;20054;-76
2022/10/26 20:21:14;;;;;;;17.38;5.75;;;;;;;13.09;100.00;101039.69;20733081;28;20046;-77
2022/10/26 20:31:16;;;;;;;13.50;6.07;;;;;;;12.89;100.00;101049.66;20730829;28;20050;-74
2022/10/26 20:41:17;;;;;;;15.35;7.32;;;;;;;12.83;100.00;101070.75;20735622;28;20050;-75
2022/10/26 20:51:19;;;;;;;12.02;6.78;;;;;;;12.81;100.00;101062.03;20734564;28;20056;-75
2022/10/26 21:01:26;;;;;;;14.00;6.75;;;;;;;12.67;100.00;101064.00;20734751;28;20062;-74
2022/10/26 21:11:27;;;;;;;16.33;7.20;;;;;;;12.48;100.00;101058.97;20734015;28;20457;-73
2022/10/26 21:21:29;;;;;;;12.73;6.95;;;;;;;12.37;100.00;101055.63;20733201;28;20041;-73
2022/10/26 21:31:30;;;;;;;15.23;5.95;;;;;;;12.30;100.00;101065.31;20732112;28;20584;-73
2022/10/26 21:41:31;;;;;;;17.63;7.38;;;;;;;12.11;100.00;101074.31;20731206;28;20141;-73
2022/10/26 21:51:34;;;;;;;15.68;9.35;;;;;;;12.06;100.00;101076.09;20730923;28;20104;-73
2022/10/26 22:01:35;;;;;;;21.80;9.27;;;;;;;11.99;100.00;101072.69;20731889;28;20042;-73
2022/10/26 22:11:36;;;;;;;16.35;7.75;;;;;;;11.81;100.00;101078.97;20738364;28;20140;-74
2022/10/26 22:21:38;;;;;;;16.80;6.65;;;;;;;11.64;100.00;101095.72;20736617;28;20069;-75
2022/10/26 22:31:39;;;;;;;15.88;5.82;;;;;;;11.53;100.00;101099.31;20736899;28;20074;-75
2022/10/26 22:41:41;;;;;;;14.95;5.60;;;;;;;11.40;100.00;101097.72;20737850;28;20045;-75
2022/10/26 22:51:42;;;;;;;16.58;6.03;;;;;;;11.32;100.00;101101.28;20736789;28;20482;-73
2022/10/26 23:01:43;;;;;;;18.65;6.18;;;;;;;11.17;100.00;101107.50;20734025;28;20050;-72
2022/10/26 23:11:45;;;;;;;13.25;5.60;;;;;;;11.15;100.00;101111.84;20739990;28;20524;-72
2022/10/26 23:21:46;;;;;;;20.25;6.22;;;;;;;10.99;100.00;101111.97;20749767;28;20053;-74
2022/10/26 23:31:48;;;;;;;13.45;5.65;;;;;;;10.96;100.00;101109.34;20747613;28;20054;-74
2022/10/26 23:41:49;;;;;;;11.75;5.28;;;;;;;10.88;100.00;101111.16;20748535;28;20050;-73
2022/10/26 23:51:50;;;;;;;18.67;6.80;;;;;;;10.85;100.00;101126.88;20748209;28;20058;-73
